Time;durP1;ratioP1;P1;durP2;ratioP2;P2;SDS_P1;SDS_P2;PMS_P1;PMS_P2;Temp;Humidity;BMP_temperature;BMP_pressure;BME280_temperature;BME280_humidity;BME280_pressure;Samples;Min_cycle;Max_cycle;Signal;HPM_P1;HPM_P2
2022/11/29 00:00:48;;;;;;;114.55;32.25;;;;;;;;;;5164102;27;20053;-72
2022/11/29 00:03:14;;;;;;;117.15;34.47;;;;;;;;;;5164691;27;20296;-70
2022/11/29 00:05:41;;;;;;;116.47;33.97;;;;;;;;;;5167495;27;20057;-71
2022/11/29 00:08:08;;;;;;;110.40;32.88;;;;;;;;;;5166385;27;20112;-71
2022/11/29 00:10:35;;;;;;;109.40;35.25;;;;;;;;;;5166828;27;20049;-71
2022/11/29 00:13:02;;;;;;;123.38;34.47;;;;;;;;;;5165355;27;20046;-71
2022/11/29 00:15:28;;;;;;;136.90;33.72;;;;;;;;;;5166561;27;20156;-72
2022/11/29 00:17:55;;;;;;;111.38;32.55;;;;;;;;;;5166175;27;20099;-69
2022/11/29 00:20:21;;;;;;;113.90;33.00;;;;;;;;;;5162489;27;21023;-71
2022/11/29 00:22:47;;;;;;;112.03;33.92;;;;;;;;;;5161065;27;20206;-71
2022/11/29 00:25:14;;;;;;;122.03;35.50;;;;;;;;;;5164232;27;20059;-69
2022/11/29 00:27:40;;;;;;;107.20;35.25;;;;;;;;;;5166483;27;20149;-71
2022/11/29 00:30:07;;;;;;;119.10;34.38;;;;;;;;;;5165471;27;20566;-71
2022/11/29 00:32:34;;;;;;;146.30;37.38;;;;;;;;;;5166384;27;20047;-69
2022/11/29 00:35:00;;;;;;;148.05;35.97;;;;;;;;;;5162600;27;20050;-71
2022/11/29 00:37:34;;;;;;;123.50;32.35;;;;;;;;;;5165448;27;20046;-70
2022/11/29 00:40:01;;;;;;;114.25;34.35;;;;;;;;;;5162981;27;20055;-71
2022/11/29 00:42:27;;;;;;;139.85;34.55;;;;;;;;;;5164451;27;20516;-71
2022/11/29 00:44:53;;;;;;;114.40;32.85;;;;;;;;;;5161486;27;20043;-71
2022/11/29 00:47:19;;;;;;;143.32;35.05;;;;;;;;;;5163825;27;20050;-70
2022/11/29 00:49:46;;;;;;;101.72;32.10;;;;;;;;;;5166314;27;20527;-72
2022/11/29 00:52:12;;;;;;;104.88;32.17;;;;;;;;;;5161822;27;20054;-69
2022/11/29 00:54:38;;;;;;;108.28;32.10;;;;;;;;;;5165118;27;20524;-72
2022/11/29 00:57:05;;;;;;;123.05;32.45;;;;;;;;;;5145558;27;20053;-69
2022/11/29 00:59:31;;;;;;;93.15;29.27;;;;;;;;;;5165018;27;20046;-68
2022/11/29 01:01:57;;;;;;;107.05;31.02;;;;;;;;;;5163555;27;20057;-70
2022/11/29 01:04:24;;;;;;;100.90;30.42;;;;;;;;;;5145696;27;20047;-71
2022/11/29 01:06:51;;;;;;;123.35;33.55;;;;;;;;;;5165345;27;20051;-71
2022/11/29 01:09:18;;;;;;;147.05;36.25;;;;;;;;;;5164820;27;20047;-71
2022/11/29 01:11:44;;;;;;;104.25;32.72;;;;;;;;;;5152099;27;20079;-71
2022/11/29 01:14:11;;;;;;;123.97;33.15;;;;;;;;;;5162988;27;20105;-72
2022/11/29 01:16:37;;;;;;;138.45;33.92;;;;;;;;;;5145050;27;20051;-71
2022/11/29 01:19:06;;;;;;;109.22;31.25;;;;;;;;;;5148990;27;20416;-71
2022/11/29 01:21:32;;;;;;;192.93;37.40;;;;;;;;;;5165162;27;20046;-71
2022/11/29 01:23:59;;;;;;;120.03;33.42;;;;;;;;;;5164181;27;20092;-70
2022/11/29 01:26:26;;;;;;;110.88;31.02;;;;;;;;;;5164698;27;20053;-71
2022/11/29 01:28:53;;;;;;;156.57;33.80;;;;;;;;;;5164420;27;20082;-71
2022/11/29 01:31:24;;;;;;;112.25;31.73;;;;;;;;;;5161673;27;20520;-72
2022/11/29 01:33:55;;;;;;;138.63;34.78;;;;;;;;;;5162844;27;20059;-72
2022/11/29 01:36:21;;;;;;;104.78;32.13;;;;;;;;;;5163741;27;20107;-72
2022/11/29 01:38:47;;;;;;;110.80;31.75;;;;;;;;;;5163045;27;20051;-72
2022/11/29 01:41:18;;;;;;;145.60;32.28;;;;;;;;;;5164031;27;20397;-71
2022/11/29 01:44:05;;;;;;;113.38;33.90;;;;;;;;;;5164470;27;20568;-71
2022/11/29 01:46:33;;;;;;;135.27;31.33;;;;;;;;;;5163575;27;20055;-72
2022/11/29 01:49:06;;;;;;;112.13;29.27;;;;;;;;;;5163030;27;20058;-71
2022/11/29 01:51:34;;;;;;;103.18;29.95;;;;;;;;;;5163516;27;20046;-71
2022/11/29 01:54:01;;;;;;;96.85;29.98;;;;;;;;;;5163387;27;20051;-72
2022/11/29 01:56:28;;;;;;;98.50;31.98;;;;;;;;;;5163231;27;20054;-72
2022/11/29 01:58:54;;;;;;;124.32;31.92;;;;;;;;;;5161751;27;20057;-71
2022/11/29 02:01:21;;;;;;;89.35;29.90;;;;;;;;;;5159279;27;20054;-71
2022/11/29 02:03:47;;;;;;;101.00;29.00;;;;;;;;;;5162637;27;20145;-70
2022/11/29 02:06:14;;;;;;;107.72;31.10;;;;;;;;;;5160891;27;20091;-72
2022/11/29 02:08:41;;;;;;;94.88;32.35;;;;;;;;;;5161356;27;20055;-72
2022/11/29 02:11:13;;;;;;;114.45;31.42;;;;;;;;;;5161768;27;20512;-72
2022/11/29 02:13:59;;;;;;;117.97;32.85;;;;;;;;;;5164573;27;20050;-71
2022/11/29 02:16:34;;;;;;;88.68;28.50;;;;;;;;;;5161236;27;20054;-71
2022/11/29 02:19:23;;;;;;;103.72;30.48;;;;;;;;;;5163530;27;20043;-72
2022/11/29 02:21:56;;;;;;;121.43;30.85;;;;;;;;;;5162018;27;20047;-70
2022/11/29 02:24:46;;;;;;;91.72;29.65;;;;;;;;;;5161283;27;20054;-72
2022/11/29 02:27:16;;;;;;;84.13;29.13;;;;;;;;;;5159507;27;20575;-71
2022/11/29 02:29:49;;;;;;;87.57;27.90;;;;;;;;;;5164761;27;20038;-72
2022/11/29 02:32:24;;;;;;;94.95;28.48;;;;;;;;;;5162919;27;20051;-70
2022/11/29 02:34:54;;;;;;;89.63;27.05;;;;;;;;;;5168063;27;20063;-72
2022/11/29 02:37:21;;;;;;;74.13;25.73;;;;;;;;;;5165283;27;20958;-72
2022/11/29 02:39:50;;;;;;;149.30;30.50;;;;;;;;;;5165398;27;20104;-69
2022/11/29 02:42:47;;;;;;;91.15;28.42;;;;;;;;;;5163625;27;20463;-72
2022/11/29 02:45:35;;;;;;;78.95;25.63;;;;;;;;;;5164726;27;20050;-71
2022/11/29 02:48:01;;;;;;;74.95;26.05;;;;;;;;;;5167345;27;20051;-71
2022/11/29 02:50:36;;;;;;;90.07;26.38;;;;;;;;;;5162373;27;20047;-70
2022/11/29 02:53:25;;;;;;;74.82;25.80;;;;;;;;;;5156533;27;20535;-72
2022/11/29 02:55:58;;;;;;;85.30;24.85;;;;;;;;;;5078889;28;20053;-73
2022/11/29 02:58:24;;;;;;;83.97;25.65;;;;;;;;;;5079130;28;20913;-71
2022/11/29 03:00:56;;;;;;;104.80;26.50;;;;;;;;;;5080192;28;20057;-70
2022/11/29 03:03:26;;;;;;;116.05;27.38;;;;;;;;;;5079235;28;20156;-72
2022/11/29 03:05:57;;;;;;;81.07;25.65;;;;;;;;;;5071250;28;20052;-72
2022/11/29 03:08:42;;;;;;;93.85;24.67;;;;;;;;;;5081841;28;20556;-72
2022/11/29 03:11:16;;;;;;;92.57;25.35;;;;;;;;;;5080480;28;20290;-72
2022/11/29 03:13:42;;;;;;;76.05;23.88;;;;;;;;;;5076925;28;20472;-69
2022/11/29 03:16:27;;;;;;;87.93;25.05;;;;;;;;;;5076066;28;20049;-72
2022/11/29 03:19:14;;;;;;;94.95;26.55;;;;;;;;;;5081749;28;20516;-69
2022/11/29 03:21:43;;;;;;;145.55;29.73;;;;;;;;;;5046581;28;20530;-73
2022/11/29 03:24:30;;;;;;;82.47;26.77;;;;;;;;;;5061767;28;20573;-70
2022/11/29 03:27:05;;;;;;;81.70;23.65;;;;;;;;;;5068741;28;20041;-70
2022/11/29 03:29:33;;;;;;;107.47;27.80;;;;;;;;;;5076594;28;20091;-71
2022/11/29 03:32:08;;;;;;;114.75;27.25;;;;;;;;;;5070277;27;20060;-72
2022/11/29 03:34:43;;;;;;;80.30;24.48;;;;;;;;;;5149857;27;21153;-71
2022/11/29 03:37:10;;;;;;;81.00;23.38;;;;;;;;;;5165625;27;20046;-69
2022/11/29 03:39:42;;;;;;;114.15;24.38;;;;;;;;;;5166921;27;20081;-72
2022/11/29 03:42:12;;;;;;;107.72;25.13;;;;;;;;;;5165144;27;20047;-71
2022/11/29 03:44:41;;;;;;;113.65;23.77;;;;;;;;;;5149134;27;20047;-70
2022/11/29 03:47:13;;;;;;;88.97;23.90;;;;;;;;;;5155780;27;20528;-72
2022/11/29 03:49:43;;;;;;;87.80;23.40;;;;;;;;;;5167701;27;20055;-71
2022/11/29 03:52:18;;;;;;;107.65;25.75;;;;;;;;;;5165702;27;20536;-72
2022/11/29 03:55:14;;;;;;;123.88;26.15;;;;;;;;;;5164868;27;20055;-71
2022/11/29 03:57:40;;;;;;;109.45;25.80;;;;;;;;;;5092840;28;20118;-69
2022/11/29 04:00:09;;;;;;;65.95;23.38;;;;;;;;;;5100872;27;20442;-72
2022/11/29 04:02:54;;;;;;;231.52;32.45;;;;;;;;;;5083723;28;20083;-72
2022/11/29 04:05:39;;;;;;;117.18;23.13;;;;;;;;;;5100927;27;20481;-72
2022/11/29 04:08:19;;;;;;;220.40;30.63;;;;;;;;;;5101209;28;20048;-70
2022/11/29 04:11:13;;;;;;;113.35;25.40;;;;;;;;;;5094679;27;20056;-72
2022/11/29 04:13:49;;;;;;;153.23;29.05;;;;;;;;;;5099006;28;20056;-72
2022/11/29 04:16:15;;;;;;;79.65;23.65;;;;;;;;;;5107655;27;20100;-72
2022/11/29 04:18:41;;;;;;;93.55;23.67;;;;;;;;;;5103931;27;20147;-69
2022/11/29 04:21:13;;;;;;;88.38;24.77;;;;;;;;;;5101109;28;20683;-72
2022/11/29 04:23:58;;;;;;;100.00;25.60;;;;;;;;;;5101823;28;20229;-69
2022/11/29 04:26:25;;;;;;;79.43;21.83;;;;;;;;;;5100178;28;20056;-70
2022/11/29 04:29:03;;;;;;;101.00;22.83;;;;;;;;;;5101317;28;20052;-73
2022/11/29 04:31:41;;;;;;;147.05;24.63;;;;;;;;;;5099757;28;20052;-71
2022/11/29 04:34:08;;;;;;;74.53;20.13;;;;;;;;;;5130697;27;20053;-70
2022/11/29 04:36:42;;;;;;;76.35;19.00;;;;;;;;;;5165146;27;20468;-72
2022/11/29 04:39:11;;;;;;;108.10;20.75;;;;;;;;;;5164634;27;20047;-69
2022/11/29 04:41:56;;;;;;;230.10;28.90;;;;;;;;;;5165302;27;20085;-72
2022/11/29 04:44:29;;;;;;;100.22;21.73;;;;;;;;;;5164267;27;20051;-72
2022/11/29 04:46:58;;;;;;;106.85;24.52;;;;;;;;;;5162589;27;20080;-69
2022/11/29 04:49:35;;;;;;;96.43;22.75;;;;;;;;;;5165662;27;20190;-72
2022/11/29 04:52:07;;;;;;;105.72;20.88;;;;;;;;;;5164519;27;20341;-71
2022/11/29 04:54:38;;;;;;;121.65;22.17;;;;;;;;;;5146346;27;20058;-71
2022/11/29 04:57:10;;;;;;;89.35;22.10;;;;;;;;;;5165021;27;20043;-71
2022/11/29 04:59:52;;;;;;;86.20;21.88;;;;;;;;;;5164342;27;20053;-69
2022/11/29 05:02:37;;;;;;;93.53;22.13;;;;;;;;;;5162224;27;20051;-69
2022/11/29 05:05:16;;;;;;;130.85;24.08;;;;;;;;;;5165787;27;20057;-69
2022/11/29 05:07:57;;;;;;;83.78;22.13;;;;;;;;;;5165799;27;20046;-71
2022/11/29 05:10:29;;;;;;;82.88;22.08;;;;;;;;;;5165205;27;20138;-69
2022/11/29 05:13:04;;;;;;;130.73;26.10;;;;;;;;;;5155784;27;20464;-72
2022/11/29 05:15:31;;;;;;;;;;;;;;;;;;5164935;27;20062;-72
2022/11/29 05:17:57;;;;;;;;;;;;;;;;;;5164452;27;46974;-70
2022/11/29 05:20:42;;;;;;;94.93;23.80;;;;;;;;;;5164829;27;43833;-71
2022/11/29 05:23:26;;;;;;;92.15;22.40;;;;;;;;;;5163417;27;20086;-71
2022/11/29 05:25:56;;;;;;;89.57;21.30;;;;;;;;;;5165756;27;20054;-69
2022/11/29 05:28:25;;;;;;;90.70;23.00;;;;;;;;;;5163287;27;20046;-72
2022/11/29 05:31:18;;;;;;;202.00;29.08;;;;;;;;;;5161633;27;20046;-71
2022/11/29 05:34:03;;;;;;;112.60;26.63;;;;;;;;;;5162250;27;20500;-69
2022/11/29 05:36:39;;;;;;;80.93;21.27;;;;;;;;;;5162967;27;20603;-72
2022/11/29 05:39:20;;;;;;;131.18;25.58;;;;;;;;;;5157103;27;20051;-70
2022/11/29 05:42:11;;;;;;;111.65;24.27;;;;;;;;;;5164266;27;20078;-72
2022/11/29 05:44:40;;;;;;;103.85;21.55;;;;;;;;;;5160642;27;20061;-71
2022/11/29 05:47:09;;;;;;;170.07;23.92;;;;;;;;;;5160322;27;20055;-72
2022/11/29 05:49:54;;;;;;;83.85;19.05;;;;;;;;;;5163641;27;20051;-70
2022/11/29 05:52:30;;;;;;;110.40;20.90;;;;;;;;;;5149311;27;20047;-70
2022/11/29 05:54:59;;;;;;;73.30;19.75;;;;;;;;;;5156951;27;20562;-71
2022/11/29 05:57:31;;;;;;;84.78;18.88;;;;;;;;;;5164077;27;20515;-71
2022/11/29 05:59:59;;;;;;;135.63;22.30;;;;;;;;;;5162991;27;20045;-69
2022/11/29 06:02:26;;;;;;;78.55;19.17;;;;;;;;;;5163364;27;20054;-69
2022/11/29 06:04:56;;;;;;;85.22;19.63;;;;;;;;;;5165558;27;20078;-69
2022/11/29 06:07:26;;;;;;;96.25;19.50;;;;;;;;;;5168599;27;20439;-72
2022/11/29 06:10:01;;;;;;;101.20;20.20;;;;;;;;;;5163107;27;20050;-71
2022/11/29 06:12:30;;;;;;;100.63;20.15;;;;;;;;;;5164605;27;20198;-70
2022/11/29 06:14:57;;;;;;;109.15;21.20;;;;;;;;;;5167356;27;20046;-73
2022/11/29 06:17:47;;;;;;;227.25;24.63;;;;;;;;;;5165683;27;20047;-71
2022/11/29 06:20:22;;;;;;;111.35;19.58;;;;;;;;;;5154910;27;20444;-72
2022/11/29 06:23:06;;;;;;;90.10;18.47;;;;;;;;;;5166748;27;20051;-72
2022/11/29 06:25:45;;;;;;;95.88;18.80;;;;;;;;;;5167464;27;20738;-70
2022/11/29 06:28:12;;;;;;;163.13;20.63;;;;;;;;;;5164422;27;20047;-70
2022/11/29 06:30:38;;;;;;;92.13;18.25;;;;;;;;;;5166650;27;20055;-72
2022/11/29 06:33:12;;;;;;;164.13;20.63;;;;;;;;;;5166415;27;20499;-72
2022/11/29 06:36:11;;;;;;;85.28;18.75;;;;;;;;;;5145224;27;20511;-72
2022/11/29 06:38:38;;;;;;;92.97;18.13;;;;;;;;;;5105050;27;20051;-70
2022/11/29 06:41:04;;;;;;;91.13;17.38;;;;;;;;;;5128354;27;20047;-71
2022/11/29 06:43:30;;;;;;;122.20;18.13;;;;;;;;;;5166948;27;20568;-73
2022/11/29 06:46:03;;;;;;;65.68;15.07;;;;;;;;;;5164289;27;20058;-71
2022/11/29 06:48:34;;;;;;;91.78;15.27;;;;;;;;;;5165027;27;20053;-72
2022/11/29 06:51:33;;;;;;;70.80;15.70;;;;;;;;;;5167489;27;20054;-69
2022/11/29 06:54:05;;;;;;;61.28;14.32;;;;;;;;;;5117480;27;20051;-72
2022/11/29 06:56:34;;;;;;;58.80;15.18;;;;;;;;;;5145254;27;20579;-71
2022/11/29 06:59:16;;;;;;;61.60;15.15;;;;;;;;;;5158633;27;20051;-72
2022/11/29 07:01:46;;;;;;;98.60;15.30;;;;;;;;;;5163923;27;20043;-71
2022/11/29 07:04:38;;;;;;;128.75;16.98;;;;;;;;;;5165249;27;20054;-71
2022/11/29 07:07:13;;;;;;;77.53;14.95;;;;;;;;;;5153377;27;20054;-71
2022/11/29 07:09:40;;;;;;;129.95;16.85;;;;;;;;;;5157308;27;20057;-71
2022/11/29 07:12:07;;;;;;;60.78;15.45;;;;;;;;;;5156681;27;20055;-69
2022/11/29 07:14:34;;;;;;;71.88;14.10;;;;;;;;;;5161394;27;20065;-71
2022/11/29 07:17:39;;;;;;;65.65;14.70;;;;;;;;;;5162214;27;20046;-72
2022/11/29 07:20:06;;;;;;;62.33;13.27;;;;;;;;;;5060528;28;20057;-68
2022/11/29 07:22:42;;;;;;;57.28;13.13;;;;;;;;;;5059245;28;20530;-71
2022/11/29 07:25:26;;;;;;;87.57;16.02;;;;;;;;;;5060643;28;20549;-71
2022/11/29 07:28:11;;;;;;;52.92;12.63;;;;;;;;;;5059447;28;20064;-71
2022/11/29 07:30:52;;;;;;;70.50;13.87;;;;;;;;;;5061260;28;20055;-71
2022/11/29 07:33:18;;;;;;;47.25;12.95;;;;;;;;;;5059912;28;20143;-71
2022/11/29 07:35:49;;;;;;;74.88;14.45;;;;;;;;;;5058983;28;20068;-71
2022/11/29 07:38:24;;;;;;;73.53;13.73;;;;;;;;;;5059757;28;20081;-71
2022/11/29 07:40:55;;;;;;;90.97;14.85;;;;;;;;;;5058511;28;20064;-68
2022/11/29 07:43:48;;;;;;;67.13;12.85;;;;;;;;;;5038020;28;20513;-69
2022/11/29 07:46:14;;;;;;;50.13;12.98;;;;;;;;;;5059643;28;20809;-71
2022/11/29 07:48:40;;;;;;;53.85;11.82;;;;;;;;;;5061444;28;20053;-70
2022/11/29 07:51:07;;;;;;;72.78;14.00;;;;;;;;;;5120669;27;20050;-69
2022/11/29 07:53:36;;;;;;;68.32;14.32;;;;;;;;;;5159619;27;20054;-73
2022/11/29 07:56:02;;;;;;;47.38;13.35;;;;;;;;;;5162672;27;20050;-72
2022/11/29 07:58:28;;;;;;;79.63;15.98;;;;;;;;;;5165251;27;20081;-73
2022/11/29 08:00:55;;;;;;;47.47;13.80;;;;;;;;;;5155313;27;20043;-72
2022/11/29 08:03:21;;;;;;;51.00;14.02;;;;;;;;;;5151826;27;20042;-71
2022/11/29 08:05:47;;;;;;;53.25;12.93;;;;;;;;;;5166389;27;20542;-74
2022/11/29 08:08:14;;;;;;;42.05;12.20;;;;;;;;;;5166012;27;20043;-73
2022/11/29 08:10:40;;;;;;;89.80;13.30;;;;;;;;;;5165816;27;20043;-70
2022/11/29 08:13:07;;;;;;;43.90;11.35;;;;;;;;;;5163840;27;20046;-72
2022/11/29 08:15:33;;;;;;;44.85;12.00;;;;;;;;;;5165229;27;20051;-72
2022/11/29 08:18:01;;;;;;;35.10;11.68;;;;;;;;;;5165847;27;20135;-72
2022/11/29 08:20:27;;;;;;;33.45;11.35;;;;;;;;;;5166366;27;20481;-72
2022/11/29 08:22:55;;;;;;;56.60;10.93;;;;;;;;;;5163020;27;20070;-70
2022/11/29 08:25:21;;;;;;;52.88;12.07;;;;;;;;;;5145238;27;20062;-71
2022/11/29 08:27:47;;;;;;;35.75;10.40;;;;;;;;;;5148185;27;20272;-73
2022/11/29 08:30:17;;;;;;;37.75;11.15;;;;;;;;;;5161532;27;20047;-71
2022/11/29 08:32:43;;;;;;;44.15;10.90;;;;;;;;;;5164818;27;20046;-70
2022/11/29 08:35:17;;;;;;;38.85;11.02;;;;;;;;;;5165838;27;20042;-73
2022/11/29 08:37:43;;;;;;;45.97;11.88;;;;;;;;;;5164447;27;20533;-72
2022/11/29 08:40:10;;;;;;;45.50;12.82;;;;;;;;;;5162474;27;20054;-72
2022/11/29 08:42:37;;;;;;;50.10;11.82;;;;;;;;;;5162832;27;20061;-72
2022/11/29 08:45:05;;;;;;;53.75;12.45;;;;;;;;;;5162790;27;20038;-70
2022/11/29 08:47:34;;;;;;;60.35;12.00;;;;;;;;;;5164372;27;20152;-71
2022/11/29 08:50:01;;;;;;;51.30;11.40;;;;;;;;;;5160253;27;20042;-72
2022/11/29 08:55:14;;;;;;;46.90;11.27;;;;;;;;;;5163035;27;20475;-72
2022/11/29 08:57:40;;;;;;;48.35;11.40;;;;;;;;;;5165006;27;20057;-70
2022/11/29 09:00:07;;;;;;;42.13;11.35;;;;;;;;;;5165365;27;20050;-72
2022/11/29 09:02:34;;;;;;;66.43;13.70;;;;;;;;;;5160611;27;20046;-70
2022/11/29 09:05:01;;;;;;;45.85;12.20;;;;;;;;;;5146869;27;20054;-70
2022/11/29 09:07:27;;;;;;;48.10;12.43;;;;;;;;;;5155938;27;20111;-71
2022/11/29 09:09:54;;;;;;;47.05;13.23;;;;;;;;;;5157052;27;20146;-71
2022/11/29 09:12:20;;;;;;;54.13;12.18;;;;;;;;;;5146927;27;20059;-71
2022/11/29 09:14:46;;;;;;;56.25;14.90;;;;;;;;;;5159875;27;20344;-72
2022/11/29 09:17:12;;;;;;;48.80;12.02;;;;;;;;;;5161468;27;20508;-72
2022/11/29 09:19:39;;;;;;;43.78;10.88;;;;;;;;;;5162881;27;20057;-70
2022/11/29 09:22:06;;;;;;;42.88;10.88;;;;;;;;;;5157988;27;20500;-70
2022/11/29 09:24:32;;;;;;;42.65;10.68;;;;;;;;;;5156569;27;20051;-70
2022/11/29 09:26:59;;;;;;;45.72;11.52;;;;;;;;;;5164315;27;20054;-70
2022/11/29 09:29:25;;;;;;;39.10;10.82;;;;;;;;;;5162581;27;20089;-71
2022/11/29 09:31:51;;;;;;;47.50;10.77;;;;;;;;;;5157804;27;20051;-72
2022/11/29 09:34:18;;;;;;;37.00;9.38;;;;;;;;;;5163259;27;20047;-71
2022/11/29 09:36:44;;;;;;;33.55;9.90;;;;;;;;;;5163727;27;20050;-68
2022/11/29 09:39:14;;;;;;;37.42;9.57;;;;;;;;;;5161719;27;20050;-68
2022/11/29 09:41:58;;;;;;;32.72;9.43;;;;;;;;;;5161569;27;20051;-71
2022/11/29 09:44:37;;;;;;;36.53;10.75;;;;;;;;;;5160229;27;20043;-72
2022/11/29 09:47:20;;;;;;;23.40;10.00;;;;;;;;;;5163094;27;20731;-70
2022/11/29 09:50:05;;;;;;;18.40;7.90;;;;;;;;;;5153871;27;20508;-70
2022/11/29 09:52:40;;;;;;;26.67;8.57;;;;;;;;;;5162105;27;20080;-72
2022/11/29 09:55:20;;;;;;;25.58;9.30;;;;;;;;;;5160375;27;20051;-72
2022/11/29 09:57:47;;;;;;;24.48;9.13;;;;;;;;;;5163012;27;20039;-73
2022/11/29 10:00:14;;;;;;;28.60;9.98;;;;;;;;;;5163279;27;20049;-73
2022/11/29 10:02:46;;;;;;;31.70;10.20;;;;;;;;;;5149982;27;20534;-71
2022/11/29 10:05:19;;;;;;;37.60;11.25;;;;;;;;;;5146283;27;20104;-72
2022/11/29 10:08:06;;;;;;;35.72;10.02;;;;;;;;;;5162667;27;20055;-73
2022/11/29 10:10:39;;;;;;;36.33;11.18;;;;;;;;;;5161886;27;20055;-69
2022/11/29 10:13:11;;;;;;;34.13;10.45;;;;;;;;;;5164588;27;20046;-69
2022/11/29 10:15:40;;;;;;;36.28;11.65;;;;;;;;;;5165423;27;20106;-71
2022/11/29 10:18:09;;;;;;;45.30;11.25;;;;;;;;;;5165073;27;20047;-71
2022/11/29 10:20:38;;;;;;;36.85;11.73;;;;;;;;;;5162781;27;20050;-72
2022/11/29 10:23:28;;;;;;;36.40;11.80;;;;;;;;;;5162074;27;20073;-72
2022/11/29 10:25:56;;;;;;;42.15;12.38;;;;;;;;;;5161118;27;20057;-71
2022/11/29 10:28:29;;;;;;;41.80;12.98;;;;;;;;;;5163933;27;20047;-70
2022/11/29 10:30:59;;;;;;;35.25;12.10;;;;;;;;;;5154666;27;20138;-71
2022/11/29 10:33:27;;;;;;;34.65;12.38;;;;;;;;;;5141616;27;20043;-72
2022/11/29 10:35:56;;;;;;;37.92;13.15;;;;;;;;;;5163856;27;20142;-72
2022/11/29 10:38:25;;;;;;;34.65;12.25;;;;;;;;;;5162780;27;20142;-72
2022/11/29 10:41:00;;;;;;;36.17;11.55;;;;;;;;;;5158998;27;20177;-72
2022/11/29 10:43:26;;;;;;;41.33;12.55;;;;;;;;;;5159189;27;20074;-72
2022/11/29 10:45:57;;;;;;;34.90;12.63;;;;;;;;;;5163107;27;20926;-72
2022/11/29 10:48:26;;;;;;;41.70;14.10;;;;;;;;;;5164226;27;20533;-71
2022/11/29 10:50:52;;;;;;;55.15;13.98;;;;;;;;;;5161142;27;20056;-71
2022/11/29 10:53:22;;;;;;;49.95;14.30;;;;;;;;;;5167250;27;20055;-71
2022/11/29 10:55:50;;;;;;;35.03;12.48;;;;;;;;;;5164929;27;20383;-70
2022/11/29 10:58:18;;;;;;;35.67;12.13;;;;;;;;;;5166097;27;20071;-71
2022/11/29 11:01:00;;;;;;;32.28;12.27;;;;;;;;;;5148443;27;20062;-70
2022/11/29 11:03:34;;;;;;;30.77;10.82;;;;;;;;;;5165568;27;20055;-71
2022/11/29 11:06:21;;;;;;;31.55;12.18;;;;;;;;;;5150231;27;20693;-71
2022/11/29 11:09:07;;;;;;;44.60;10.95;;;;;;;;;;5167081;27;20051;-70
2022/11/29 11:11:33;;;;;;;38.45;12.50;;;;;;;;;;5145224;27;20078;-71
2022/11/29 11:14:02;;;;;;;30.83;12.38;;;;;;;;;;5163978;27;20079;-71
2022/11/29 11:16:28;;;;;;;41.33;13.38;;;;;;;;;;5158073;27;20125;-70
2022/11/29 11:19:22;;;;;;;35.47;12.73;;;;;;;;;;5160888;27;20166;-70
2022/11/29 11:21:48;;;;;;;33.08;12.23;;;;;;;;;;5167156;27;20535;-70
2022/11/29 11:24:22;;;;;;;39.40;13.38;;;;;;;;;;5165572;27;20436;-70
2022/11/29 11:26:49;;;;;;;41.88;12.95;;;;;;;;;;5166008;27;20111;-70
2022/11/29 11:29:19;;;;;;;39.55;13.48;;;;;;;;;;5165937;27;20054;-70
2022/11/29 11:31:50;;;;;;;28.98;12.57;;;;;;;;;;5167093;27;20900;-70
2022/11/29 11:34:30;;;;;;;28.10;11.98;;;;;;;;;;5147618;27;20123;-70
2022/11/29 11:37:15;;;;;;;31.13;12.73;;;;;;;;;;5163010;27;20047;-70
2022/11/29 11:39:42;;;;;;;36.25;14.05;;;;;;;;;;5164338;27;20526;-69
2022/11/29 11:44:59;;;;;;;39.25;14.30;;;;;;;;;;5153288;27;20147;-70
2022/11/29 11:47:27;;;;;;;44.88;14.30;;;;;;;;;;5147761;27;20493;-71
2022/11/29 11:50:01;;;;;;;43.60;14.15;;;;;;;;;;5161405;27;20084;-70
2022/11/29 11:52:51;;;;;;;36.85;14.10;;;;;;;;;;5164562;27;20535;-70
2022/11/29 11:55:20;;;;;;;33.20;13.13;;;;;;;;;;5162142;27;20047;-71
2022/11/29 11:58:01;;;;;;;35.70;13.43;;;;;;;;;;5165561;27;20176;-71
2022/11/29 12:00:47;;;;;;;34.15;12.00;;;;;;;;;;5163438;27;20197;-71
2022/11/29 12:03:44;;;;;;;29.15;12.20;;;;;;;;;;5156679;27;20604;-71
2022/11/29 12:06:26;;;;;;;31.83;11.35;;;;;;;;;;5162552;27;20051;-70
2022/11/29 12:09:02;;;;;;;30.42;12.75;;;;;;;;;;5165455;27;20475;-70
2022/11/29 12:11:32;;;;;;;31.58;13.15;;;;;;;;;;5166415;27;20050;-70
2022/11/29 12:14:00;;;;;;;31.95;12.77;;;;;;;;;;5154592;27;20100;-70
2022/11/29 12:16:29;;;;;;;31.67;12.80;;;;;;;;;;5163921;27;20178;-70
2022/11/29 12:18:59;;;;;;;31.05;12.98;;;;;;;;;;5166438;27;20050;-71
2022/11/29 12:21:27;;;;;;;30.73;11.57;;;;;;;;;;5163165;27;20169;-59
2022/11/29 12:23:57;;;;;;;29.75;12.88;;;;;;;;;;5156095;27;20062;-69
2022/11/29 12:26:25;;;;;;;32.20;13.55;;;;;;;;;;5160107;27;20504;-70
2022/11/29 12:29:14;;;;;;;34.45;13.23;;;;;;;;;;5165460;27;20051;-69
2022/11/29 12:31:43;;;;;;;31.55;13.70;;;;;;;;;;5163643;27;20518;-69
2022/11/29 12:34:31;;;;;;;31.98;12.10;;;;;;;;;;5165420;27;20154;-70
2022/11/29 12:37:06;;;;;;;36.13;13.57;;;;;;;;;;5166400;27;20536;-70
2022/11/29 12:39:51;;;;;;;25.90;12.80;;;;;;;;;;5146118;27;20053;-71
2022/11/29 12:42:21;;;;;;;33.65;13.20;;;;;;;;;;5163602;27;20055;-69
2022/11/29 12:44:50;;;;;;;28.80;12.30;;;;;;;;;;5150473;27;20053;-71
2022/11/29 12:47:35;;;;;;;32.20;12.77;;;;;;;;;;5163599;27;20050;-70
2022/11/29 12:50:08;;;;;;;29.85;11.90;;;;;;;;;;5166302;27;20059;-71
2022/11/29 12:52:37;;;;;;;30.25;12.10;;;;;;;;;;5163735;27;20145;-70
2022/11/29 12:55:22;;;;;;;39.67;12.85;;;;;;;;;;5162794;27;20138;-70
2022/11/29 12:57:58;;;;;;;25.53;11.23;;;;;;;;;;5164766;27;20054;-70
2022/11/29 13:00:27;;;;;;;24.33;10.55;;;;;;;;;;5145161;27;20360;-68
2022/11/29 13:02:59;;;;;;;29.05;12.85;;;;;;;;;;5145328;27;20508;-71
2022/11/29 13:05:28;;;;;;;30.25;11.73;;;;;;;;;;5150607;27;20133;-69
2022/11/29 13:08:03;;;;;;;33.10;13.00;;;;;;;;;;5164896;27;20061;-72
2022/11/29 13:10:48;;;;;;;22.83;10.63;;;;;;;;;;5165035;27;20050;-72
2022/11/29 13:13:30;;;;;;;31.60;13.53;;;;;;;;;;5159697;27;20047;-73
2022/11/29 13:16:04;;;;;;;29.48;13.00;;;;;;;;;;5165273;27;20627;-70
2022/11/29 13:18:46;;;;;;;29.77;13.83;;;;;;;;;;5161639;27;20428;-73
2022/11/29 13:21:18;;;;;;;32.53;11.80;;;;;;;;;;5164817;27;20050;-71
2022/11/29 13:23:48;;;;;;;31.35;12.27;;;;;;;;;;5159340;27;20055;-73
2022/11/29 13:26:36;;;;;;;29.67;13.52;;;;;;;;;;5164021;27;20082;-72
2022/11/29 13:29:03;;;;;;;27.05;12.30;;;;;;;;;;5162913;27;20057;-73
2022/11/29 13:31:29;;;;;;;24.40;12.15;;;;;;;;;;5160793;27;20086;-73
2022/11/29 13:34:08;;;;;;;24.02;11.13;;;;;;;;;;5159423;27;20066;-72
2022/11/29 13:36:53;;;;;;;29.75;12.50;;;;;;;;;;5165064;27;20047;-73
2022/11/29 13:39:28;;;;;;;32.25;12.40;;;;;;;;;;5162922;27;20051;-73
2022/11/29 13:41:54;;;;;;;;;;;;;;;;;;5161373;27;20050;-70
2022/11/29 13:44:21;;;;;;;22.98;11.70;;;;;;;;;;5156913;27;44728;-73
2022/11/29 13:46:50;;;;;;;28.55;12.10;;;;;;;;;;5159898;27;20129;-72
2022/11/29 13:49:35;;;;;;;27.60;13.02;;;;;;;;;;5161292;27;20511;-72
2022/11/29 13:52:03;;;;;;;31.38;11.88;;;;;;;;;;5158880;27;20116;-73
2022/11/29 13:54:30;;;;;;;29.58;11.07;;;;;;;;;;5163150;27;20051;-73
2022/11/29 13:57:03;;;;;;;28.67;13.15;;;;;;;;;;5157796;27;20687;-72
2022/11/29 13:59:31;;;;;;;28.08;12.10;;;;;;;;;;5162392;27;20055;-73
2022/11/29 14:01:58;;;;;;;25.35;11.57;;;;;;;;;;5162730;27;20228;-72
2022/11/29 14:04:38;;;;;;;26.77;12.07;;;;;;;;;;5164562;27;20130;-73
2022/11/29 14:07:04;;;;;;;25.17;12.20;;;;;;;;;;5160924;27;20050;-72
2022/11/29 14:09:33;;;;;;;27.33;12.40;;;;;;;;;;5163367;27;20054;-73
2022/11/29 14:11:59;;;;;;;30.08;12.00;;;;;;;;;;5160108;27;20078;-73
2022/11/29 14:14:25;;;;;;;24.27;12.77;;;;;;;;;;5161300;27;20047;-72
2022/11/29 14:16:54;;;;;;;25.98;13.25;;;;;;;;;;5165097;27;20046;-73
2022/11/29 14:19:27;;;;;;;25.33;12.65;;;;;;;;;;5163316;27;20093;-72
2022/11/29 14:22:02;;;;;;;25.63;12.85;;;;;;;;;;5162543;27;20492;-71
2022/11/29 14:24:31;;;;;;;25.30;13.77;;;;;;;;;;5158877;27;20051;-72
2022/11/29 14:29:33;;;;;;;;;;;;;;;;;;5168656;27;20129;-69
2022/11/29 14:31:59;;;;;;;24.55;11.00;;;;;;;;;;5167626;27;44945;-73
2022/11/29 14:34:31;;;;;;;20.92;11.85;;;;;;;;;;5148922;27;20525;-70
2022/11/29 14:37:07;;;;;;;27.50;12.30;;;;;;;;;;5163487;27;20050;-71
2022/11/29 14:39:36;;;;;;;25.75;13.18;;;;;;;;;;5163617;27;20672;-70
2022/11/29 14:42:15;;;;;;;25.10;12.35;;;;;;;;;;5165750;27;20077;-71
2022/11/29 14:44:44;;;;;;;24.13;11.82;;;;;;;;;;5167513;27;20120;-70
2022/11/29 14:47:30;;;;;;;23.85;12.35;;;;;;;;;;5168284;27;20051;-71
2022/11/29 14:49:56;;;;;;;;;;;;;;;;;;5164986;27;20043;-68
2022/11/29 14:52:27;;;;;;;21.52;11.55;;;;;;;;;;5166247;27;46552;-71
2022/11/29 14:54:54;;;;;;;25.20;11.80;;;;;;;;;;5163979;27;20043;-70